createdAt,value
2022-10-14T00:02:09.133Z,13.50
2022-10-14T00:04:39.261Z,12.17
2022-10-14T00:07:09.067Z,13.70
2022-10-14T00:09:41.389Z,12.60
2022-10-14T00:12:12.167Z,12.73
2022-10-14T00:14:42.447Z,10.30
2022-10-14T00:17:12.244Z,13.03
2022-10-14T00:19:42.349Z,12.18
2022-10-14T00:22:12.150Z,10.90
2022-10-14T00:24:41.980Z,11.90
2022-10-14T00:27:11.715Z,12.70
2022-10-14T00:29:41.529Z,11.33
2022-10-14T00:32:11.313Z,11.90
2022-10-14T00:34:41.119Z,11.97
2022-10-14T00:37:10.899Z,11.97
2022-10-14T00:39:40.770Z,14.30
2022-10-14T00:42:16.126Z,10.77
2022-10-14T00:44:49.278Z,10.68
2022-10-14T00:47:19.856Z,11.23
2022-10-14T00:49:50.153Z,12.20
2022-10-14T00:52:22.564Z,13.05
2022-10-14T00:54:57.107Z,12.10
2022-10-14T00:57:27.916Z,12.67
2022-10-14T01:00:01.786Z,10.90
2022-10-14T01:02:32.160Z,11.67
2022-10-14T01:05:03.842Z,11.20
2022-10-14T01:07:48.682Z,11.97
2022-10-14T01:10:27.289Z,11.53
2022-10-14T01:13:18.110Z,11.13
2022-10-14T01:16:11.864Z,11.30
2022-10-14T01:18:51.874Z,11.57
2022-10-14T01:21:39.458Z,12.75
2022-10-14T01:24:21.214Z,13.63
2022-10-14T01:27:08.759Z,13.40
2022-10-14T01:30:00.270Z,13.07
2022-10-14T01:32:36.022Z,12.00
2022-10-14T01:35:27.141Z,14.70
2022-10-14T01:37:59.845Z,13.80
2022-10-14T01:40:42.452Z,14.70
2022-10-14T01:43:15.110Z,12.78
2022-10-14T01:45:47.282Z,13.10
2022-10-14T01:48:19.814Z,15.43
2022-10-14T01:50:52.799Z,12.47
2022-10-14T01:53:28.644Z,15.20
2022-10-14T01:55:59.695Z,13.20
2022-10-14T01:58:32.586Z,14.63
2022-10-14T02:01:09.335Z,13.43
2022-10-14T02:03:44.630Z,13.08
2022-10-14T02:06:17.455Z,14.05
2022-10-14T02:08:50.308Z,13.97
2022-10-14T02:11:21.656Z,12.10
2022-10-14T02:13:54.767Z,12.17
2022-10-14T02:16:27.394Z,13.00
2022-10-14T02:19:03.386Z,13.23
2022-10-14T02:21:36.531Z,13.32
2022-10-14T02:24:12.483Z,13.10
2022-10-14T02:26:44.995Z,12.17
2022-10-14T02:29:15.395Z,12.53
2022-10-14T02:31:46.607Z,12.13
2022-10-14T02:34:19.430Z,13.53
2022-10-14T02:36:50.500Z,12.93
2022-10-14T02:41:50.694Z,12.33
2022-10-14T02:44:20.496Z,11.40
2022-10-14T02:46:51.076Z,11.97
2022-10-14T02:49:20.800Z,12.80
2022-10-14T02:51:50.617Z,11.87
2022-10-14T02:54:20.433Z,13.40
2022-10-14T02:56:50.252Z,11.87
2022-10-14T02:59:19.846Z,13.50
2022-10-14T03:01:50.705Z,12.00
2022-10-14T03:04:22.307Z,13.97
2022-10-14T03:06:53.915Z,12.67
2022-10-14T03:09:24.377Z,13.43
2022-10-14T03:11:54.566Z,11.75
2022-10-14T03:14:24.552Z,12.00
2022-10-14T03:16:54.608Z,11.40
2022-10-14T03:19:25.646Z,12.93
2022-10-14T03:21:57.240Z,12.73
2022-10-14T03:24:27.887Z,13.20
2022-10-14T03:27:06.215Z,12.85
2022-10-14T03:29:36.842Z,11.73
2022-10-14T03:32:08.494Z,12.70
2022-10-14T03:34:52.197Z,11.17
2022-10-14T03:37:23.709Z,13.33
2022-10-14T03:39:55.273Z,13.20
2022-10-14T03:42:26.660Z,12.03
2022-10-14T03:44:57.073Z,13.55
2022-10-14T03:47:28.585Z,11.97
2022-10-14T03:49:58.603Z,12.97
2022-10-14T03:52:33.637Z,11.93
2022-10-14T03:55:06.970Z,12.15
2022-10-14T03:57:36.746Z,12.13
2022-10-14T04:00:09.165Z,12.67
2022-10-14T04:02:44.529Z,12.80
2022-10-14T04:05:24.985Z,11.43
2022-10-14T04:07:54.818Z,10.90
2022-10-14T04:10:24.496Z,11.60
2022-10-14T04:12:56.996Z,13.00
2022-10-14T04:15:28.416Z,12.40
2022-10-14T04:17:59.948Z,12.77
2022-10-14T04:20:30.975Z,13.70
2022-10-14T04:23:01.706Z,11.63
2022-10-14T04:25:31.355Z,13.00
2022-10-14T04:28:02.882Z,13.73
2022-10-14T04:30:34.381Z,12.03
2022-10-14T04:33:04.491Z,13.40
2022-10-14T04:35:34.396Z,12.60
2022-10-14T04:38:04.367Z,14.13
2022-10-14T04:40:34.170Z,12.33
2022-10-14T04:43:04.362Z,13.10
2022-10-14T04:45:35.884Z,12.43
2022-10-14T04:48:06.732Z,13.72
2022-10-14T04:50:38.639Z,14.83
2022-10-14T04:53:26.203Z,13.47
2022-10-14T04:56:00.163Z,13.57
2022-10-14T04:58:30.602Z,13.43
2022-10-14T05:01:01.009Z,13.43
2022-10-14T05:03:38.307Z,13.43
2022-10-14T05:06:08.388Z,12.80
2022-10-14T05:08:40.251Z,13.10
2022-10-14T05:11:11.908Z,12.73
2022-10-14T05:16:12.240Z,14.67
2022-10-14T05:18:42.497Z,14.13
2022-10-14T05:21:14.078Z,14.18
2022-10-14T05:24:02.371Z,13.10
2022-10-14T05:26:33.954Z,13.97
2022-10-14T05:29:07.123Z,14.60
2022-10-14T05:31:37.331Z,16.20
2022-10-14T05:34:08.834Z,15.67
2022-10-14T05:36:38.978Z,16.10
2022-10-14T05:39:11.574Z,14.93
2022-10-14T05:41:41.797Z,17.03
2022-10-14T05:44:12.995Z,18.05
2022-10-14T05:49:12.842Z,23.63
2022-10-14T05:51:43.824Z,25.45
2022-10-14T05:54:15.514Z,23.63
2022-10-14T05:56:46.108Z,21.87
2022-10-14T05:59:16.855Z,22.45
2022-10-14T06:01:46.995Z,20.07
2022-10-14T06:04:21.813Z,22.35
2022-10-14T06:06:51.642Z,20.80
2022-10-14T06:09:21.498Z,17.90
2022-10-14T06:11:51.577Z,16.42
2022-10-14T06:14:22.203Z,15.83
2022-10-14T06:16:53.717Z,14.53
2022-10-14T06:19:23.566Z,16.37
2022-10-14T06:21:53.370Z,14.40
2022-10-14T06:24:23.169Z,14.98
2022-10-14T06:26:52.970Z,14.83
2022-10-14T06:29:24.195Z,14.93
2022-10-14T06:31:54.073Z,14.87
2022-10-14T06:34:24.765Z,15.77
2022-10-14T06:36:59.869Z,15.00
2022-10-14T06:39:26.155Z,15.73
2022-10-14T06:41:56.276Z,15.00
2022-10-14T06:44:25.951Z,15.03
2022-10-14T06:46:55.752Z,14.10
2022-10-14T06:49:25.625Z,16.33
2022-10-14T06:51:55.494Z,16.27
2022-10-14T06:54:25.558Z,17.57
2022-10-14T06:56:55.349Z,15.67
2022-10-14T06:59:25.867Z,16.17
2022-10-14T07:01:55.622Z,16.27
2022-10-14T07:04:25.568Z,16.63
2022-10-14T07:06:56.980Z,16.70
2022-10-14T07:09:26.778Z,16.03
2022-10-14T07:11:57.028Z,17.30
2022-10-14T07:14:26.824Z,18.90
2022-10-14T07:16:56.950Z,16.57
2022-10-14T07:19:27.026Z,18.10
2022-10-14T07:21:57.149Z,17.98
2022-10-14T07:24:27.012Z,16.27
2022-10-14T07:26:56.877Z,17.43
2022-10-14T07:29:26.721Z,14.77
2022-10-14T07:31:57.080Z,15.03
2022-10-14T07:34:27.394Z,14.07
2022-10-14T07:36:56.880Z,14.40
2022-10-14T07:39:27.576Z,14.33
2022-10-14T07:41:57.326Z,12.87
2022-10-14T07:44:27.538Z,14.43
2022-10-14T07:46:58.833Z,14.67
2022-10-14T07:51:57.091Z,14.60
2022-10-14T07:54:29.981Z,13.35
2022-10-14T07:57:00.319Z,15.40
2022-10-14T07:59:30.506Z,14.68
2022-10-14T08:02:00.574Z,14.77
2022-10-14T08:04:30.339Z,13.63
2022-10-14T08:07:01.218Z,15.03
2022-10-14T08:09:31.576Z,16.27
2022-10-14T08:12:01.061Z,14.43
2022-10-14T08:14:31.189Z,13.83
2022-10-14T08:17:01.020Z,13.33
2022-10-14T08:19:31.273Z,13.35
2022-10-14T08:22:01.089Z,12.77
2022-10-14T08:24:30.989Z,11.93
2022-10-14T08:27:01.190Z,13.13
2022-10-14T08:29:31.012Z,12.87
2022-10-14T08:32:01.160Z,13.50
2022-10-14T08:34:31.447Z,13.03
2022-10-14T08:37:02.889Z,13.13
2022-10-14T08:39:32.718Z,14.23
2022-10-14T08:42:26.909Z,13.00
2022-10-14T08:45:00.012Z,12.10
2022-10-14T08:47:39.011Z,11.77
2022-10-14T08:50:30.050Z,12.80
2022-10-14T08:53:17.567Z,11.70
2022-10-14T08:55:53.028Z,12.10
2022-10-14T09:00:56.875Z,11.65
2022-10-14T09:03:31.260Z,12.07
2022-10-14T09:06:06.964Z,12.25
2022-10-14T09:08:41.478Z,11.87
2022-10-14T09:11:16.889Z,11.30
2022-10-14T09:13:49.954Z,11.27
2022-10-14T09:16:25.113Z,9.60
2022-10-14T09:19:00.493Z,10.90
2022-10-14T09:21:54.502Z,11.25
2022-10-14T09:24:32.409Z,10.70
2022-10-14T09:27:07.889Z,10.10
2022-10-14T09:29:58.365Z,10.45
2022-10-14T09:32:36.914Z,8.77
2022-10-14T09:35:15.766Z,8.77
2022-10-14T09:37:45.546Z,9.40
2022-10-14T09:40:18.102Z,8.63
2022-10-14T09:42:53.885Z,7.87
2022-10-14T09:45:26.135Z,8.07
2022-10-14T09:47:58.984Z,6.07
2022-10-14T09:50:37.857Z,5.83
2022-10-14T09:53:12.962Z,6.77
2022-10-14T09:55:51.630Z,7.07
2022-10-14T09:58:24.371Z,7.60
2022-10-14T10:00:58.979Z,6.20
2022-10-14T10:03:35.432Z,7.83
2022-10-14T10:06:09.145Z,6.58
2022-10-14T10:08:42.241Z,6.53
2022-10-14T10:11:13.966Z,6.60
2022-10-14T10:13:46.332Z,6.30
2022-10-14T10:16:34.343Z,7.80
2022-10-14T10:19:21.980Z,6.00
2022-10-14T10:21:52.317Z,6.55
2022-10-14T10:24:27.309Z,6.67
2022-10-14T10:26:55.746Z,6.30
2022-10-14T10:29:32.909Z,8.07
2022-10-14T10:32:08.419Z,7.50
2022-10-14T10:34:53.328Z,5.83
2022-10-14T10:37:29.188Z,6.30
2022-10-14T10:40:20.225Z,6.47
2022-10-14T10:43:09.278Z,7.17
2022-10-14T10:46:03.634Z,7.03
2022-10-14T10:48:50.106Z,7.00
2022-10-14T10:51:34.706Z,5.87
2022-10-14T10:54:10.558Z,6.90
2022-10-14T10:56:46.370Z,5.95
2022-10-14T10:59:43.261Z,6.45
2022-10-14T11:02:33.419Z,6.25
2022-10-14T11:05:12.175Z,5.17
2022-10-14T11:08:18.812Z,4.60
2022-10-14T11:11:36.669Z,5.97
2022-10-14T11:14:12.696Z,5.57
2022-10-14T11:16:51.164Z,5.07
2022-10-14T11:19:33.367Z,4.80
2022-10-14T11:22:06.247Z,5.13
2022-10-14T11:24:58.935Z,5.60
2022-10-14T11:27:44.469Z,6.15
2022-10-14T11:30:20.134Z,4.63
2022-10-14T11:33:06.475Z,4.50
2022-10-14T11:36:00.848Z,5.25
2022-10-14T11:38:46.658Z,5.47
2022-10-14T11:41:38.683Z,5.63
2022-10-14T11:44:11.219Z,4.95
2022-10-14T11:46:44.228Z,5.47
2022-10-14T11:49:29.040Z,4.72
2022-10-14T11:52:04.758Z,4.60
2022-10-14T11:54:40.712Z,5.10
2022-10-14T11:57:33.409Z,5.00
2022-10-14T12:00:22.913Z,5.05
2022-10-14T12:03:28.777Z,5.90
2022-10-14T12:06:07.390Z,4.83
2022-10-14T12:08:58.506Z,5.00
2022-10-14T12:11:40.346Z,4.65
2022-10-14T12:14:23.338Z,6.13
2022-10-14T12:16:56.732Z,4.83
2022-10-14T12:19:29.529Z,5.50
2022-10-14T12:22:29.690Z,5.47
2022-10-14T12:25:02.812Z,5.55
2022-10-14T12:27:33.355Z,4.57
2022-10-14T12:30:03.827Z,4.43
2022-10-14T12:32:35.190Z,4.35
2022-10-14T12:35:10.258Z,4.67
2022-10-14T12:37:46.496Z,4.43
2022-10-14T12:40:19.490Z,4.57
2022-10-14T12:42:56.830Z,4.17
2022-10-14T12:45:29.785Z,4.03
2022-10-14T12:48:24.629Z,3.20
2022-10-14T12:51:00.307Z,3.77
2022-10-14T12:53:34.352Z,2.73
2022-10-14T12:56:05.963Z,3.30
2022-10-14T12:58:41.517Z,2.93
2022-10-14T13:01:20.064Z,3.87
2022-10-14T13:04:00.170Z,3.30
2022-10-14T13:06:39.505Z,4.90
2022-10-14T13:09:18.151Z,4.70
2022-10-14T13:11:53.784Z,5.22
2022-10-14T13:14:32.120Z,4.97
2022-10-14T13:17:08.325Z,4.00
2022-10-14T13:19:42.838Z,4.30
2022-10-14T13:22:34.455Z,4.67
2022-10-14T13:25:15.261Z,4.28
2022-10-14T13:27:48.110Z,4.47
2022-10-14T13:30:23.582Z,3.83
2022-10-14T13:33:02.193Z,4.23
2022-10-14T13:35:35.097Z,3.47
2022-10-14T13:38:08.007Z,4.15
2022-10-14T13:40:53.364Z,3.53
2022-10-14T13:43:42.301Z,3.83
2022-10-14T13:46:20.260Z,3.80
2022-10-14T13:48:55.716Z,4.00
2022-10-14T13:51:36.461Z,4.07
2022-10-14T13:54:26.707Z,4.07
2022-10-14T13:57:38.148Z,3.57
2022-10-14T14:00:19.519Z,3.67
2022-10-14T14:02:26.362Z,4.00
2022-10-14T14:04:59.254Z,3.70
2022-10-14T14:08:08.001Z,3.50
2022-10-14T14:10:09.761Z,3.97
2022-10-14T14:12:42.609Z,3.73
2022-10-14T14:15:25.597Z,4.73
2022-10-14T14:17:55.665Z,3.95
2022-10-14T14:20:29.278Z,4.03
2022-10-14T14:23:00.302Z,4.20
2022-10-14T14:25:36.697Z,5.03
2022-10-14T14:28:06.868Z,4.20
2022-10-14T14:30:39.770Z,4.53
2022-10-14T14:33:12.689Z,4.13
2022-10-14T14:35:57.744Z,3.63
2022-10-14T14:38:32.211Z,3.97
2022-10-14T14:41:20.032Z,3.22
2022-10-14T14:44:13.645Z,3.03
2022-10-14T14:46:36.732Z,3.57
2022-10-14T14:49:08.670Z,3.20
2022-10-14T14:51:40.802Z,3.27
2022-10-14T14:54:19.192Z,3.33
2022-10-14T14:56:52.028Z,3.40
2022-10-14T14:59:27.079Z,3.50
2022-10-14T15:04:33.502Z,2.87
2022-10-14T15:07:21.101Z,3.83
2022-10-14T15:09:52.004Z,3.23
2022-10-14T15:12:28.340Z,5.37
2022-10-14T15:15:06.347Z,2.83
2022-10-14T15:17:42.044Z,3.00
2022-10-14T15:20:17.469Z,3.40
2022-10-14T15:22:51.970Z,2.67
2022-10-14T15:25:25.791Z,2.63
2022-10-14T15:27:57.327Z,3.30
2022-10-14T15:30:45.308Z,3.23
2022-10-14T15:33:23.072Z,2.77
2022-10-14T15:36:01.888Z,2.37
2022-10-14T15:41:05.394Z,2.90
2022-10-14T15:43:36.837Z,2.75
2022-10-14T15:48:55.740Z,3.40
2022-10-14T15:51:27.468Z,3.75
2022-10-14T15:53:58.285Z,3.42
2022-10-14T15:56:30.117Z,2.62
2022-10-14T15:59:00.036Z,2.77
2022-10-14T16:01:29.911Z,2.90
2022-10-14T16:04:00.889Z,2.80
2022-10-14T16:06:32.509Z,2.77
2022-10-14T16:09:02.014Z,3.50
2022-10-14T16:11:32.576Z,3.07
2022-10-14T16:14:02.186Z,3.43
2022-10-14T16:16:38.182Z,4.13
2022-10-14T16:19:08.054Z,2.63
2022-10-14T16:21:40.028Z,2.50
2022-10-14T16:24:12.752Z,2.27
2022-10-14T16:26:42.524Z,4.60
2022-10-14T16:29:13.365Z,2.70
2022-10-14T16:31:43.225Z,2.80
2022-10-14T16:34:13.733Z,2.50
2022-10-14T16:36:43.811Z,3.10
2022-10-14T16:39:14.321Z,3.57
2022-10-14T16:41:44.268Z,2.70
2022-10-14T16:44:16.363Z,2.85
2022-10-14T16:47:02.701Z,2.73
2022-10-14T16:49:32.476Z,3.53
2022-10-14T16:52:02.276Z,3.20
2022-10-14T16:54:32.200Z,2.33
2022-10-14T16:57:02.970Z,2.73
2022-10-14T16:59:33.441Z,2.55
2022-10-14T17:02:04.494Z,2.57
2022-10-14T17:07:04.913Z,2.87
2022-10-14T17:09:39.347Z,3.07
2022-10-14T17:12:13.763Z,3.07
2022-10-14T17:14:42.916Z,2.77
2022-10-14T17:17:13.203Z,3.37
2022-10-14T17:19:43.026Z,3.20
2022-10-14T17:22:13.513Z,4.57
2022-10-14T17:24:43.320Z,2.83
2022-10-14T17:27:12.914Z,3.60
2022-10-14T17:29:42.864Z,3.33
2022-10-14T17:32:12.587Z,3.17
2022-10-14T17:34:42.370Z,3.27
2022-10-14T17:37:12.197Z,3.83
2022-10-14T17:39:41.996Z,3.50
2022-10-14T17:42:11.491Z,4.60
2022-10-14T17:44:43.785Z,4.67
2022-10-14T17:47:13.170Z,4.13
2022-10-14T17:49:43.234Z,3.97
2022-10-14T17:52:13.032Z,3.83
2022-10-14T17:54:42.820Z,4.20
2022-10-14T17:57:12.338Z,4.30
2022-10-14T17:59:42.114Z,4.00
2022-10-14T18:02:14.894Z,4.87
2022-10-14T18:04:44.700Z,4.17
2022-10-14T18:07:15.258Z,4.33
2022-10-14T18:09:44.757Z,4.43
2022-10-14T18:12:14.291Z,4.13
2022-10-14T18:14:44.210Z,4.10
2022-10-14T18:17:14.136Z,4.40
2022-10-14T18:19:47.198Z,2.77
2022-10-14T18:22:16.143Z,3.97
2022-10-14T18:24:45.781Z,3.10
2022-10-14T18:27:15.317Z,4.47
2022-10-14T18:29:45.122Z,4.20
2022-10-14T18:32:14.635Z,5.73
2022-10-14T18:34:44.795Z,4.77
2022-10-14T18:37:14.710Z,5.22
2022-10-14T18:42:28.230Z,5.35
2022-10-14T18:44:59.141Z,5.80
2022-10-14T18:47:29.195Z,5.70
2022-10-14T18:49:59.680Z,5.00
2022-10-14T18:52:29.516Z,5.30
2022-10-14T18:54:59.496Z,5.27
2022-10-14T18:57:29.826Z,5.20
2022-10-14T18:59:59.486Z,4.93
2022-10-14T19:02:29.408Z,5.17
2022-10-14T19:04:59.501Z,5.70
2022-10-14T19:07:29.274Z,5.00
2022-10-14T19:09:59.082Z,5.23
2022-10-14T19:12:44.402Z,4.60
2022-10-14T19:15:14.340Z,5.50
2022-10-14T19:17:45.966Z,5.03
2022-10-14T19:20:16.804Z,5.70
2022-10-14T19:22:46.669Z,5.67
2022-10-14T19:25:20.489Z,5.87
2022-10-14T19:27:51.804Z,6.57
2022-10-14T19:30:21.549Z,5.77
2022-10-14T19:32:52.284Z,6.33
2022-10-14T19:35:22.275Z,6.03
2022-10-14T19:37:52.117Z,6.73
2022-10-14T19:40:23.699Z,6.47
2022-10-14T19:42:53.197Z,5.93
2022-10-14T19:45:23.518Z,5.73
2022-10-14T19:47:53.755Z,5.40
2022-10-14T19:50:23.258Z,6.13
2022-10-14T19:52:53.034Z,4.60
2022-10-14T19:55:22.700Z,6.17
2022-10-14T19:57:54.123Z,5.67
2022-10-14T20:00:25.586Z,5.17
2022-10-14T20:02:55.378Z,5.17
2022-10-14T20:05:25.005Z,5.20
2022-10-14T20:07:55.012Z,6.37
2022-10-14T20:10:24.853Z,6.53
2022-10-14T20:12:54.653Z,6.60
2022-10-14T20:15:24.499Z,5.50
2022-10-14T20:17:54.441Z,6.97
2022-10-14T20:20:24.253Z,6.23
2022-10-14T20:22:54.041Z,5.93
2022-10-14T20:25:23.785Z,4.93
2022-10-14T20:27:53.596Z,6.33
2022-10-14T20:30:23.385Z,5.90
2022-10-14T20:32:54.636Z,6.00
2022-10-14T20:35:24.866Z,6.10
2022-10-14T20:37:54.521Z,7.77
2022-10-14T20:40:24.307Z,7.30
2022-10-14T20:42:54.222Z,6.10
2022-10-14T20:45:23.898Z,6.83
2022-10-14T20:47:53.958Z,8.03
2022-10-14T20:50:23.614Z,7.63
2022-10-14T20:52:53.402Z,9.57
2022-10-14T20:55:23.019Z,11.00
2022-10-14T20:57:52.834Z,11.60
2022-10-14T21:00:22.733Z,11.03
2022-10-14T21:02:52.817Z,11.55
2022-10-14T21:05:22.642Z,13.03
2022-10-14T21:07:53.090Z,11.63
2022-10-14T21:10:23.078Z,11.57
2022-10-14T21:12:52.888Z,11.10
2022-10-14T21:15:24.342Z,11.13
2022-10-14T21:17:54.657Z,10.75
2022-10-14T21:20:24.174Z,10.97
2022-10-14T21:22:54.075Z,9.37
2022-10-14T21:25:23.655Z,10.50
2022-10-14T21:27:53.439Z,10.43
2022-10-14T21:30:23.038Z,10.57
2022-10-14T21:32:52.978Z,10.67
2022-10-14T21:35:22.621Z,9.97
2022-10-14T21:37:55.364Z,9.97
2022-10-14T21:40:25.331Z,11.03
2022-10-14T21:42:55.539Z,10.45
2022-10-14T21:45:25.331Z,10.43
2022-10-14T21:47:55.215Z,9.40
2022-10-14T21:50:25.735Z,9.57
2022-10-14T21:52:55.296Z,10.47
2022-10-14T21:55:25.124Z,10.33
2022-10-14T21:57:55.080Z,10.70
2022-10-14T22:00:24.990Z,10.98
2022-10-14T22:02:55.486Z,9.90
2022-10-14T22:05:25.001Z,9.68
2022-10-14T22:07:55.105Z,10.80
2022-10-14T22:10:43.705Z,9.43
2022-10-14T22:13:13.577Z,9.85
2022-10-14T22:15:44.234Z,9.70
2022-10-14T22:18:14.475Z,10.63
2022-10-14T22:20:44.668Z,9.83
2022-10-14T22:23:14.764Z,10.30
2022-10-14T22:25:44.589Z,10.80
2022-10-14T22:28:14.159Z,12.20
2022-10-14T22:30:43.993Z,11.23
2022-10-14T22:33:13.722Z,12.53
2022-10-14T22:35:44.128Z,11.10
2022-10-14T22:38:13.626Z,14.60
2022-10-14T22:40:43.532Z,14.10
2022-10-14T22:43:13.414Z,12.37
2022-10-14T22:45:43.221Z,13.00
2022-10-14T22:48:13.086Z,12.53
2022-10-14T22:50:43.240Z,13.13
2022-10-14T22:53:12.867Z,13.87
2022-10-14T22:55:42.755Z,13.30
2022-10-14T22:58:13.338Z,12.07
2022-10-14T23:00:42.916Z,13.43
2022-10-14T23:03:13.054Z,13.55
2022-10-14T23:05:42.944Z,13.70
2022-10-14T23:08:14.275Z,11.80
2022-10-14T23:10:43.970Z,14.00
2022-10-14T23:13:13.765Z,12.82
2022-10-14T23:15:43.884Z,15.03
2022-10-14T23:18:13.414Z,16.60
2022-10-14T23:20:43.214Z,13.43
2022-10-14T23:23:12.875Z,14.87
2022-10-14T23:25:42.883Z,14.07
2022-10-14T23:28:12.385Z,15.20
2022-10-14T23:30:42.519Z,14.00
2022-10-14T23:33:12.597Z,14.65
2022-10-14T23:35:42.540Z,13.70
2022-10-14T23:38:13.797Z,14.73
2022-10-14T23:40:43.879Z,13.75
2022-10-14T23:43:13.725Z,13.47
2022-10-14T23:45:44.632Z,12.17
2022-10-14T23:48:14.247Z,15.40
2022-10-14T23:50:44.686Z,15.03
2022-10-14T23:53:15.023Z,13.78
2022-10-14T23:55:44.747Z,14.87
2022-10-14T23:58:14.682Z,12.73
